PAKI

Details ICAO PAKI (KPN)
Name KIPNUK
Region USA (Alaska)
Timezone America/Nome (UTC-8.0)
Plans Departing 4
Arriving 6
Stats Elevation 11 ft / 3 m (AMSL)
Location 59.932951° -164.030514°
Runways 1
Magnetic Variation 10.315° E
Sunrise 2018-06-23 13:34:36 UTC / 2018-06-23 05:34:36 Local
Sunset 2018-06-24 08:24:39 UTC / 2018-06-24 00:24:39 Local
Advertisement - Login to hide

Runways

ID Width Length Bearing (true) Bearing (mag) Surface Threshold Offset Overrun Length
15 36 ft / 11 m 2,121 ft / 646 m 165.86° 155.55° Gravel 0 ft / 0 m 0 ft / 0 m
33 36 ft / 11 m 2,121 ft / 646 m 345.86° 335.55° Gravel 0 ft / 0 m 0 ft / 0 m

Map

Weather


0- 5 10 15 20 25 30 35+ Temperature / ° C

Clouds and Precipitation
Forecast for 2018-06-24 06:00 UTC. Updated 4 hours ago

Ground ~20,000 ft ~40,000 ft Winds

METAR

PAKI 240656Z AUTO 20005KT 10SM OVC070 10/06 A3009 RMK AO2 SLP192 T01000056

TAF

Not found

Frequencies

Recorded 118.32 MHz ASOS
Unicom 122.70 MHz CTAF
Warning: Do not use this data for real-world aviation or navigation. No guarantee of current accuracy is given.